createdAt,value
2023-05-06T00:01:53.227Z,2.27
2023-05-06T00:04:56.712Z,1.70
2023-05-06T00:07:59.945Z,3.97
2023-05-06T00:11:03.136Z,2.73
2023-05-06T00:14:07.673Z,2.40
2023-05-06T00:17:11.278Z,1.90
2023-05-06T00:20:14.777Z,2.43
2023-05-06T00:23:17.991Z,1.93
2023-05-06T00:26:21.135Z,2.00
2023-05-06T00:29:25.628Z,2.00
2023-05-06T00:32:28.874Z,2.03
2023-05-06T00:35:32.506Z,2.83
2023-05-06T00:38:35.677Z,3.30
2023-05-06T00:41:38.963Z,2.17
2023-05-06T00:44:43.512Z,2.33
2023-05-06T00:47:46.719Z,2.47
2023-05-06T00:50:49.945Z,2.20
2023-05-06T00:53:53.193Z,1.93
2023-05-06T00:56:56.391Z,1.77
2023-05-06T01:00:00.871Z,1.67
2023-05-06T01:03:04.165Z,4.47
2023-05-06T01:06:13.156Z,2.43
2023-05-06T01:09:19.924Z,2.00
2023-05-06T01:12:29.990Z,1.97
2023-05-06T01:15:37.033Z,2.50
2023-05-06T01:18:40.292Z,2.53
2023-05-06T01:21:44.566Z,1.77
2023-05-06T01:24:49.049Z,2.13
2023-05-06T01:27:52.394Z,2.77
2023-05-06T01:30:59.515Z,1.80
2023-05-06T01:34:07.294Z,1.87
2023-05-06T01:37:12.697Z,2.20
2023-05-06T01:40:18.353Z,2.90
2023-05-06T01:43:22.485Z,1.90
2023-05-06T01:46:26.380Z,2.77
2023-05-06T01:49:29.745Z,1.93
2023-05-06T01:52:32.907Z,1.83
2023-05-06T01:55:37.409Z,2.27
2023-05-06T01:58:40.584Z,2.83
2023-05-06T02:01:43.767Z,2.33
2023-05-06T02:04:48.016Z,2.87
2023-05-06T02:07:51.261Z,2.37
2023-05-06T02:10:55.807Z,2.77
2023-05-06T02:13:59.160Z,2.30
2023-05-06T02:17:04.932Z,2.53
2023-05-06T02:20:09.703Z,2.00
2023-05-06T02:23:13.123Z,2.77
2023-05-06T02:26:17.624Z,3.20
2023-05-06T02:29:20.770Z,2.30
2023-05-06T02:32:23.963Z,2.60
2023-05-06T02:35:27.135Z,2.53
2023-05-06T02:38:30.738Z,2.53
2023-05-06T02:41:35.237Z,2.43
2023-05-06T02:44:38.408Z,4.20
2023-05-06T02:47:41.659Z,2.60
2023-05-06T02:50:44.835Z,2.43
2023-05-06T02:53:47.980Z,3.03
2023-05-06T02:56:52.493Z,2.40
2023-05-06T02:59:55.699Z,2.93
2023-05-06T03:02:58.923Z,3.30
2023-05-06T03:06:02.167Z,3.03
2023-05-06T03:09:05.792Z,2.43
2023-05-06T03:12:10.311Z,2.57
2023-05-06T03:15:13.548Z,2.70
2023-05-06T03:18:16.688Z,3.47
2023-05-06T03:21:19.960Z,2.73
2023-05-06T03:24:23.139Z,3.10
2023-05-06T03:27:28.098Z,3.27
2023-05-06T03:30:31.271Z,3.30
2023-05-06T03:33:34.422Z,2.47
2023-05-06T03:36:37.611Z,2.50
2023-05-06T03:39:40.769Z,2.43
2023-05-06T03:42:46.316Z,3.30
2023-05-06T03:45:49.516Z,2.67
2023-05-06T03:48:52.692Z,6.03
2023-05-06T03:51:56.095Z,3.10
2023-05-06T03:54:59.232Z,3.67
2023-05-06T03:58:03.781Z,3.10
2023-05-06T04:01:07.090Z,2.93
2023-05-06T04:04:10.257Z,3.27
2023-05-06T04:07:13.429Z,3.43
2023-05-06T04:10:16.596Z,3.20
2023-05-06T04:13:21.169Z,2.97
2023-05-06T04:16:24.507Z,2.67
2023-05-06T04:19:27.862Z,2.73
2023-05-06T04:22:31.010Z,2.80
2023-05-06T04:25:35.811Z,3.20
2023-05-06T04:28:40.809Z,2.90
2023-05-06T04:31:43.956Z,3.10
2023-05-06T04:34:47.408Z,3.17
2023-05-06T04:37:50.590Z,2.70
2023-05-06T04:40:53.786Z,3.27
2023-05-06T04:43:58.327Z,2.80
2023-05-06T04:47:01.503Z,4.20
2023-05-06T04:50:05.341Z,2.73
2023-05-06T04:53:08.542Z,2.80
2023-05-06T04:56:11.764Z,2.70
2023-05-06T04:59:16.259Z,2.93
2023-05-06T05:02:19.485Z,2.60
2023-05-06T05:05:22.667Z,3.60
2023-05-06T05:08:25.831Z,3.43
2023-05-06T05:11:28.988Z,3.03
2023-05-06T05:14:33.472Z,2.67
2023-05-06T05:17:36.887Z,5.63
2023-05-06T05:20:40.068Z,2.90
2023-05-06T05:23:43.202Z,3.50
2023-05-06T05:26:46.365Z,2.90
2023-05-06T05:29:50.918Z,3.50
2023-05-06T05:32:54.253Z,3.40
2023-05-06T05:35:57.666Z,3.30
2023-05-06T05:39:00.842Z,3.70
2023-05-06T05:42:04.028Z,3.20
2023-05-06T05:45:10.038Z,3.90
2023-05-06T05:48:13.365Z,3.20
2023-05-06T05:51:16.520Z,3.37
2023-05-06T05:54:19.670Z,2.93
2023-05-06T05:57:22.822Z,3.10
2023-05-06T06:00:27.411Z,3.63
2023-05-06T06:03:30.746Z,3.20
2023-05-06T06:06:34.077Z,2.80
2023-05-06T06:09:37.238Z,3.93
2023-05-06T06:12:40.447Z,3.33
2023-05-06T06:15:45.092Z,3.60
2023-05-06T06:18:48.254Z,4.43
2023-05-06T06:21:52.083Z,3.57
2023-05-06T06:24:55.430Z,8.70
2023-05-06T06:27:58.844Z,4.77
2023-05-06T06:31:03.350Z,5.37
2023-05-06T06:34:06.581Z,4.87
2023-05-06T06:37:11.733Z,5.47
2023-05-06T06:40:15.317Z,5.50
2023-05-06T06:43:19.731Z,5.53
2023-05-06T06:46:25.164Z,5.77
2023-05-06T06:49:28.914Z,7.33
2023-05-06T06:52:32.090Z,6.00
2023-05-06T06:55:35.294Z,6.03
2023-05-06T06:58:38.650Z,6.10
2023-05-06T07:01:43.845Z,6.53
2023-05-06T07:04:47.106Z,7.47
2023-05-06T07:07:50.263Z,6.83
2023-05-06T07:10:53.498Z,7.93
2023-05-06T07:13:56.905Z,7.50
2023-05-06T07:17:01.738Z,7.63
2023-05-06T07:20:05.079Z,6.80
2023-05-06T07:23:08.297Z,7.40
2023-05-06T07:26:11.449Z,7.03
2023-05-06T07:29:14.644Z,7.60
2023-05-06T07:32:19.142Z,7.40
2023-05-06T07:35:22.306Z,5.97
2023-05-06T07:38:25.800Z,6.90
2023-05-06T07:41:28.984Z,6.87
2023-05-06T07:44:32.193Z,7.17
2023-05-06T07:47:37.275Z,6.90
2023-05-06T07:50:40.566Z,6.30
2023-05-06T07:53:43.774Z,6.47
2023-05-06T07:56:46.932Z,5.83
2023-05-06T07:59:50.873Z,5.30
2023-05-06T08:02:55.440Z,6.10
2023-05-06T08:05:58.696Z,5.40
2023-05-06T08:09:01.981Z,5.63
2023-05-06T08:12:05.695Z,5.13
2023-05-06T08:15:09.697Z,4.83
2023-05-06T08:18:22.481Z,5.33
2023-05-06T08:21:26.312Z,5.40
2023-05-06T08:24:30.037Z,6.33
2023-05-06T08:27:33.188Z,5.57
2023-05-06T08:30:36.617Z,5.23
2023-05-06T08:33:41.198Z,5.67
2023-05-06T08:36:44.343Z,4.83
2023-05-06T08:39:47.488Z,5.17
2023-05-06T08:42:51.767Z,4.70
2023-05-06T08:45:56.207Z,4.20
2023-05-06T08:49:00.806Z,5.50
2023-05-06T08:52:06.049Z,4.83
2023-05-06T08:55:10.409Z,4.53
2023-05-06T08:58:15.707Z,4.33
2023-05-06T09:01:18.987Z,3.33
2023-05-06T09:04:23.678Z,3.47
2023-05-06T09:07:26.836Z,3.10
2023-05-06T09:10:33.563Z,3.23
2023-05-06T09:13:36.710Z,3.00
2023-05-06T09:16:40.400Z,3.50
2023-05-06T09:19:44.971Z,3.43
2023-05-06T09:22:48.996Z,3.33
2023-05-06T09:25:52.363Z,2.87
2023-05-06T09:28:55.814Z,2.87
2023-05-06T09:31:58.962Z,3.80
2023-05-06T09:35:03.544Z,3.53
2023-05-06T09:38:07.477Z,4.43
2023-05-06T09:41:11.178Z,4.37
2023-05-06T09:44:14.446Z,3.87
2023-05-06T09:47:17.828Z,4.20
2023-05-06T09:50:22.887Z,3.93
2023-05-06T09:53:27.133Z,5.43
2023-05-06T09:56:32.092Z,4.27
2023-05-06T09:59:35.657Z,3.50
2023-05-06T10:02:39.135Z,3.83
2023-05-06T10:05:43.886Z,2.97
2023-05-06T10:08:47.840Z,3.13
2023-05-06T10:11:52.787Z,2.87
2023-05-06T10:14:56.079Z,3.33
2023-05-06T10:17:59.515Z,2.47
2023-05-06T10:21:05.503Z,2.73
2023-05-06T10:24:10.408Z,3.03
2023-05-06T10:27:14.024Z,3.10
2023-05-06T10:30:17.795Z,2.90
2023-05-06T10:33:23.002Z,3.63
2023-05-06T10:36:28.430Z,2.77
2023-05-06T10:39:31.646Z,2.73
2023-05-06T10:42:35.501Z,2.30
2023-05-06T10:45:59.933Z,1.83
2023-05-06T10:49:20.949Z,2.30
2023-05-06T10:52:26.120Z,2.43
2023-05-06T10:55:30.829Z,2.92
2023-05-06T10:58:37.655Z,3.63
2023-05-06T11:01:41.528Z,3.13
2023-05-06T11:04:44.701Z,2.85
2023-05-06T11:07:51.255Z,1.88
2023-05-06T11:10:55.126Z,2.25
2023-05-06T11:14:13.960Z,3.00
2023-05-06T11:17:31.234Z,2.33
2023-05-06T11:20:34.427Z,2.97
2023-05-06T11:23:52.835Z,2.10
2023-05-06T11:26:57.784Z,2.17
2023-05-06T11:30:00.920Z,2.08
2023-05-06T11:33:06.093Z,3.17
2023-05-06T11:36:16.460Z,2.53
2023-05-06T11:39:19.665Z,2.20
2023-05-06T11:42:27.613Z,1.63
2023-05-06T11:45:41.332Z,1.90
2023-05-06T11:48:45.064Z,2.60
2023-05-06T11:51:49.896Z,1.50
2023-05-06T11:54:54.351Z,1.77
2023-05-06T11:57:58.852Z,1.85
2023-05-06T12:01:02.476Z,3.25
2023-05-06T12:04:06.211Z,2.10
2023-05-06T12:07:10.666Z,1.98
2023-05-06T12:10:14.068Z,4.15
2023-05-06T12:13:19.272Z,1.88
2023-05-06T12:16:23.638Z,1.92
2023-05-06T12:19:28.085Z,1.95
2023-05-06T12:22:31.359Z,2.75
2023-05-06T12:25:34.796Z,1.65
2023-05-06T12:28:42.574Z,2.72
2023-05-06T12:31:47.117Z,1.55
2023-05-06T12:34:50.447Z,1.65
2023-05-06T12:37:53.615Z,7.75
2023-05-06T12:40:57.564Z,1.02
2023-05-06T12:44:02.649Z,2.53
2023-05-06T12:47:10.096Z,1.80
2023-05-06T12:50:13.610Z,2.17
2023-05-06T12:53:31.865Z,1.80
2023-05-06T12:56:35.034Z,1.45
2023-05-06T12:59:39.530Z,1.27
2023-05-06T13:02:42.764Z,1.63
2023-05-06T13:05:46.368Z,1.80
2023-05-06T13:08:49.517Z,2.17
2023-05-06T13:11:52.691Z,1.48
2023-05-06T13:14:57.199Z,1.98
2023-05-06T13:18:00.466Z,1.67
2023-05-06T13:21:03.792Z,1.05
2023-05-06T13:24:07.966Z,2.40
2023-05-06T13:27:11.508Z,2.35
2023-05-06T13:30:16.838Z,1.40
2023-05-06T13:33:19.997Z,1.15
2023-05-06T13:36:23.220Z,9.75
2023-05-06T13:39:26.739Z,1.92
2023-05-06T13:42:29.898Z,1.35
2023-05-06T13:45:36.105Z,0.90
2023-05-06T13:48:39.242Z,1.30
2023-05-06T13:51:42.394Z,0.82
2023-05-06T13:54:46.193Z,2.35
2023-05-06T13:57:49.355Z,1.17
2023-05-06T14:00:53.824Z,2.65
2023-05-06T14:03:56.947Z,1.55
2023-05-06T14:07:00.102Z,1.92
2023-05-06T14:10:03.341Z,1.60
2023-05-06T14:13:07.277Z,2.28
2023-05-06T14:16:11.960Z,1.10
2023-05-06T14:19:15.149Z,1.15
2023-05-06T14:22:18.322Z,1.38
2023-05-06T14:25:26.586Z,0.98
2023-05-06T14:28:29.821Z,1.30
2023-05-06T14:31:35.565Z,1.05
2023-05-06T14:34:38.730Z,1.00
2023-05-06T14:37:41.898Z,1.40
2023-05-06T14:40:45.037Z,2.15
2023-05-06T14:43:48.169Z,1.38
2023-05-06T14:46:52.652Z,1.45
2023-05-06T14:49:55.791Z,1.30
2023-05-06T14:52:58.920Z,3.85
2023-05-06T14:56:02.066Z,2.72
2023-05-06T14:59:05.242Z,1.55
2023-05-06T15:02:10.827Z,0.95
2023-05-06T15:05:14.476Z,1.10
2023-05-06T15:08:17.807Z,1.20
2023-05-06T15:11:20.945Z,1.95
2023-05-06T15:14:24.122Z,1.80
2023-05-06T15:17:28.675Z,1.05
2023-05-06T15:20:31.845Z,1.13
2023-05-06T15:23:35.032Z,0.82
2023-05-06T15:26:38.202Z,2.17
2023-05-06T15:29:41.365Z,0.73
2023-05-06T15:32:47.575Z,0.63
2023-05-06T15:35:50.749Z,2.13
2023-05-06T15:39:00.196Z,1.92
2023-05-06T15:42:04.137Z,1.20
2023-05-06T15:45:08.028Z,0.73
2023-05-06T15:48:13.825Z,0.82
2023-05-06T15:51:17.191Z,2.00
2023-05-06T15:54:20.464Z,1.40
2023-05-06T15:57:23.188Z,1.00
2023-05-06T16:00:26.108Z,1.50
2023-05-06T16:03:30.537Z,1.50
2023-05-06T16:06:34.980Z,1.25
2023-05-06T16:09:37.689Z,0.70
2023-05-06T16:12:40.398Z,1.35
2023-05-06T16:15:43.184Z,0.80
2023-05-06T16:18:47.300Z,1.67
2023-05-06T16:21:50.043Z,0.82
2023-05-06T16:24:52.763Z,1.33
2023-05-06T16:27:55.938Z,0.80
2023-05-06T16:30:58.739Z,2.55
2023-05-06T16:34:02.831Z,0.80
2023-05-06T16:37:07.452Z,1.90
2023-05-06T16:40:11.897Z,0.80
2023-05-06T16:43:15.251Z,1.17
2023-05-06T16:46:18.040Z,1.15
2023-05-06T16:49:22.356Z,1.13
2023-05-06T16:52:25.316Z,1.15
2023-05-06T16:55:28.122Z,1.30
2023-05-06T16:58:30.934Z,1.38
2023-05-06T17:01:33.669Z,1.38
2023-05-06T17:04:37.755Z,2.70
2023-05-06T17:07:40.549Z,1.48
2023-05-06T17:10:43.398Z,1.23
2023-05-06T17:13:46.139Z,0.80
2023-05-06T17:16:49.275Z,0.95
2023-05-06T17:19:53.348Z,0.77
2023-05-06T17:22:56.247Z,1.20
2023-05-06T17:25:59.042Z,0.98
2023-05-06T17:29:01.815Z,2.08
2023-05-06T17:32:04.774Z,1.30
2023-05-06T17:35:09.995Z,2.45
2023-05-06T17:38:14.513Z,4.25
2023-05-06T17:41:17.227Z,1.67
2023-05-06T17:44:19.984Z,1.70
2023-05-06T17:47:23.913Z,1.30
2023-05-06T17:50:28.101Z,1.25
2023-05-06T17:53:32.304Z,2.15
2023-05-06T17:56:35.050Z,1.48
2023-05-06T17:59:37.774Z,3.72
2023-05-06T18:02:41.270Z,1.05
2023-05-06T18:05:46.573Z,1.60
2023-05-06T18:08:49.279Z,1.25
2023-05-06T18:11:52.116Z,1.87
2023-05-06T18:14:55.355Z,1.20
2023-05-06T18:17:58.140Z,1.23
2023-05-06T18:21:02.253Z,1.45
2023-05-06T18:24:15.324Z,1.77
2023-05-06T18:27:19.393Z,2.30
2023-05-06T18:30:22.141Z,2.07
2023-05-06T18:33:24.913Z,2.37
2023-05-06T18:36:29.012Z,2.13
2023-05-06T18:39:31.731Z,4.30
2023-05-06T18:42:35.579Z,1.67
2023-05-06T18:45:38.676Z,5.27
2023-05-06T18:48:41.414Z,1.87
2023-05-06T18:51:45.553Z,1.70
2023-05-06T18:54:48.288Z,1.67
2023-05-06T18:57:51.191Z,2.87
2023-05-06T19:00:55.337Z,3.10
2023-05-06T19:03:58.201Z,3.23
2023-05-06T19:07:02.829Z,5.37
2023-05-06T19:10:06.319Z,5.87
2023-05-06T19:13:09.175Z,3.90
2023-05-06T19:16:12.315Z,4.37
2023-05-06T19:19:15.066Z,4.97
2023-05-06T19:22:19.673Z,4.57
2023-05-06T19:25:22.473Z,7.77
2023-05-06T19:28:25.227Z,7.53
2023-05-06T19:31:28.412Z,8.17
2023-05-06T19:34:31.315Z,6.87
2023-05-06T19:37:36.106Z,6.33
2023-05-06T19:40:39.256Z,5.43
2023-05-06T19:43:43.028Z,5.40
2023-05-06T19:46:45.859Z,6.17
2023-05-06T19:49:49.444Z,7.23
2023-05-06T19:52:53.571Z,6.07
2023-05-06T19:55:57.809Z,6.17
2023-05-06T19:59:00.583Z,6.50
2023-05-06T20:02:03.385Z,6.30
2023-05-06T20:05:07.026Z,7.23
2023-05-06T20:08:12.588Z,7.47
2023-05-06T20:11:15.372Z,10.10
2023-05-06T20:14:18.106Z,8.23
2023-05-06T20:17:20.913Z,9.80
2023-05-06T20:20:23.977Z,9.67
2023-05-06T20:23:28.038Z,5.53
2023-05-06T20:26:30.807Z,7.97
2023-05-06T20:29:33.713Z,8.00
2023-05-06T20:32:36.748Z,5.97
2023-05-06T20:35:40.499Z,5.67
2023-05-06T20:38:44.595Z,5.13
2023-05-06T20:41:47.451Z,6.90
2023-05-06T20:44:51.048Z,6.50
2023-05-06T20:47:53.881Z,6.50
2023-05-06T20:50:57.509Z,5.83
2023-05-06T20:54:01.585Z,5.17
2023-05-06T20:57:04.442Z,5.57
2023-05-06T21:00:08.658Z,7.43
2023-05-06T21:03:11.639Z,9.63
2023-05-06T21:06:14.542Z,8.30
2023-05-06T21:09:18.629Z,8.20
2023-05-06T21:12:21.417Z,7.90
2023-05-06T21:15:24.372Z,8.57
2023-05-06T21:18:28.357Z,8.60
2023-05-06T21:21:32.436Z,6.13
2023-05-06T21:24:36.662Z,5.93
2023-05-06T21:27:39.425Z,5.67
2023-05-06T21:30:42.356Z,7.87
2023-05-06T21:33:45.087Z,9.40
2023-05-06T21:36:47.878Z,5.73
2023-05-06T21:39:52.954Z,4.60
2023-05-06T21:42:55.895Z,5.00
2023-05-06T21:45:58.718Z,4.70
2023-05-06T21:49:01.938Z,5.47
2023-05-06T21:52:06.256Z,5.60
2023-05-06T21:55:11.246Z,9.93
2023-05-06T21:58:14.622Z,6.73
2023-05-06T22:01:17.638Z,13.20
2023-05-06T22:04:20.890Z,23.63
2023-05-06T22:07:23.643Z,20.93
2023-05-06T22:10:27.700Z,24.63
2023-05-06T22:13:31.070Z,16.13
2023-05-06T22:16:35.244Z,21.77
2023-05-06T22:19:38.310Z,16.03
2023-05-06T22:22:41.612Z,19.37
2023-05-06T22:25:47.469Z,55.37
2023-05-06T22:28:50.231Z,45.60
2023-05-06T22:31:53.051Z,74.90
2023-05-06T22:34:55.942Z,44.57
2023-05-06T22:37:58.675Z,49.50
2023-05-06T22:41:02.972Z,37.20
2023-05-06T22:44:06.276Z,30.00
2023-05-06T22:47:09.311Z,29.13
2023-05-06T22:50:13.374Z,29.07
2023-05-06T22:53:16.107Z,28.07
2023-05-06T22:56:20.197Z,27.67
2023-05-06T22:59:23.018Z,21.60
2023-05-06T23:02:25.742Z,19.00
2023-05-06T23:05:28.602Z,19.50
2023-05-06T23:08:31.469Z,15.20
2023-05-06T23:11:35.667Z,12.30
2023-05-06T23:14:38.406Z,13.90
2023-05-06T23:17:41.528Z,13.70
2023-05-06T23:20:44.362Z,13.70
2023-05-06T23:23:47.073Z,10.90
2023-05-06T23:26:51.968Z,10.37
2023-05-06T23:29:54.692Z,13.77
2023-05-06T23:32:57.884Z,8.80
2023-05-06T23:36:00.963Z,10.50
2023-05-06T23:39:04.109Z,9.90
2023-05-06T23:42:08.248Z,9.20
2023-05-06T23:45:11.719Z,9.87
2023-05-06T23:48:14.751Z,8.43
2023-05-06T23:51:17.465Z,9.13
2023-05-06T23:54:20.834Z,9.10
2023-05-06T23:57:24.956Z,8.63
